createdAt,value
2022-12-31T00:01:43.626Z,5.80
2022-12-31T00:06:53.270Z,4.60
2022-12-31T00:12:03.013Z,4.80
2022-12-31T00:17:12.798Z,5.70
2022-12-31T00:22:22.499Z,4.90
2022-12-31T00:27:35.418Z,5.40
2022-12-31T00:32:45.062Z,4.80
2022-12-31T00:37:56.388Z,5.00
2022-12-31T00:43:06.001Z,5.50
2022-12-31T00:48:16.259Z,4.80
2022-12-31T00:53:26.994Z,4.90
2022-12-31T00:58:36.654Z,6.40
2022-12-31T01:03:46.953Z,4.90
2022-12-31T01:08:57.712Z,5.70
2022-12-31T01:14:12.291Z,5.20
2022-12-31T01:19:25.307Z,4.00
2022-12-31T01:24:34.993Z,4.20
2022-12-31T01:29:44.622Z,2.90
2022-12-31T01:34:54.241Z,4.70
2022-12-31T01:40:04.159Z,5.20
2022-12-31T01:45:18.089Z,4.40
2022-12-31T01:50:33.312Z,4.30
2022-12-31T01:55:48.986Z,5.70
2022-12-31T02:01:01.073Z,5.40
2022-12-31T02:06:19.955Z,5.90
2022-12-31T02:11:35.603Z,4.60
2022-12-31T02:16:56.585Z,5.00
2022-12-31T02:22:19.290Z,4.10
2022-12-31T02:27:47.138Z,5.30
2022-12-31T02:33:30.577Z,5.30
2022-12-31T02:38:46.398Z,5.00
2022-12-31T02:43:56.470Z,5.90
2022-12-31T02:49:17.860Z,6.60
2022-12-31T02:54:43.327Z,6.80
2022-12-31T03:00:16.829Z,4.70
2022-12-31T03:05:31.060Z,7.20
2022-12-31T03:10:40.999Z,6.00
2022-12-31T03:15:51.125Z,7.70
2022-12-31T03:21:18.639Z,4.90
2022-12-31T03:26:28.227Z,6.70
2022-12-31T03:31:37.992Z,6.20
2022-12-31T03:36:47.610Z,7.10
2022-12-31T03:41:57.407Z,4.50
2022-12-31T03:47:07.247Z,6.30
2022-12-31T03:52:17.192Z,4.80
2022-12-31T03:57:27.542Z,6.00
2022-12-31T04:02:37.465Z,6.70
2022-12-31T04:07:48.123Z,7.20
2022-12-31T04:13:00.516Z,5.90
2022-12-31T04:18:10.545Z,7.20
2022-12-31T04:23:20.407Z,7.00
2022-12-31T04:28:30.177Z,5.30
2022-12-31T04:33:39.894Z,5.20
2022-12-31T04:38:49.571Z,6.30
2022-12-31T04:44:01.802Z,6.10
2022-12-31T04:49:12.205Z,7.50
2022-12-31T04:54:22.151Z,8.20
2022-12-31T04:59:32.572Z,6.90
2022-12-31T05:04:42.792Z,6.40
2022-12-31T05:09:53.041Z,6.70
2022-12-31T05:15:02.762Z,8.10
2022-12-31T05:20:13.740Z,11.30
2022-12-31T05:25:23.419Z,19.00
2022-12-31T05:30:33.320Z,14.60
2022-12-31T05:35:43.402Z,16.90
2022-12-31T05:41:00.261Z,13.00
2022-12-31T05:46:10.690Z,10.90
2022-12-31T05:51:20.597Z,12.90
2022-12-31T05:56:30.267Z,9.00
2022-12-31T06:01:40.410Z,7.10
2022-12-31T06:06:49.983Z,8.30
2022-12-31T06:12:00.224Z,8.50
2022-12-31T06:17:09.835Z,7.60
2022-12-31T06:22:19.538Z,7.40
2022-12-31T06:27:29.236Z,7.80
2022-12-31T06:32:39.657Z,7.30
2022-12-31T06:37:50.868Z,6.30
2022-12-31T06:43:00.678Z,9.60
2022-12-31T06:48:11.254Z,8.60
2022-12-31T06:53:20.899Z,8.30
2022-12-31T06:58:32.099Z,6.90
2022-12-31T07:03:53.334Z,6.80
2022-12-31T07:09:13.347Z,7.10
2022-12-31T07:14:37.737Z,7.20
2022-12-31T07:20:02.159Z,4.80
2022-12-31T07:25:17.175Z,6.60
2022-12-31T07:30:37.256Z,5.00
2022-12-31T07:35:58.622Z,6.60
2022-12-31T07:41:18.650Z,7.00
2022-12-31T07:46:41.597Z,6.90
2022-12-31T07:51:53.462Z,6.60
2022-12-31T07:57:03.446Z,6.80
2022-12-31T08:02:27.463Z,6.20
2022-12-31T08:07:48.684Z,6.80
2022-12-31T08:13:06.121Z,5.50
2022-12-31T08:18:17.987Z,3.10
2022-12-31T08:23:38.742Z,5.50
2022-12-31T08:29:17.475Z,4.00
2022-12-31T08:34:40.846Z,4.80
2022-12-31T08:40:09.491Z,6.90
2022-12-31T08:45:27.977Z,9.70
2022-12-31T08:50:39.191Z,18.10
2022-12-31T08:55:53.097Z,13.30
2022-12-31T09:01:05.542Z,12.50
2022-12-31T09:06:27.605Z,10.10
2022-12-31T09:11:56.516Z,17.20
2022-12-31T09:17:26.737Z,19.50
2022-12-31T09:22:38.401Z,7.00
2022-12-31T09:27:59.984Z,8.70
2022-12-31T09:33:18.536Z,5.90
2022-12-31T09:38:39.162Z,10.80
2022-12-31T09:44:48.996Z,7.30
2022-12-31T09:50:39.144Z,7.20
2022-12-31T09:55:54.736Z,7.50
2022-12-31T10:01:22.503Z,7.50
2022-12-31T10:06:48.231Z,5.10
2022-12-31T10:12:37.029Z,5.80
2022-12-31T10:18:08.170Z,5.40
2022-12-31T10:23:40.497Z,5.50
2022-12-31T10:29:01.517Z,5.60
2022-12-31T10:34:32.889Z,6.40
2022-12-31T10:40:03.865Z,5.80
2022-12-31T10:46:05.497Z,6.50
2022-12-31T10:52:04.339Z,7.10
2022-12-31T10:58:12.636Z,5.40
2022-12-31T11:04:15.515Z,6.80
2022-12-31T11:10:14.408Z,5.70
2022-12-31T11:15:54.515Z,5.40
2022-12-31T11:21:37.891Z,5.70
2022-12-31T11:27:19.621Z,4.50
2022-12-31T11:32:53.782Z,4.30
2022-12-31T11:38:22.999Z,6.40
2022-12-31T11:43:43.071Z,3.40
2022-12-31T11:49:13.771Z,4.70
2022-12-31T11:54:54.351Z,4.20
2022-12-31T12:00:08.984Z,3.90
2022-12-31T12:05:23.501Z,4.70
2022-12-31T12:10:43.753Z,3.30
2022-12-31T12:15:57.123Z,4.30
2022-12-31T12:21:15.172Z,5.20
2022-12-31T12:26:40.119Z,5.10
2022-12-31T12:32:01.196Z,5.50
2022-12-31T12:37:29.654Z,4.00
2022-12-31T12:42:47.689Z,5.40
2022-12-31T12:48:04.107Z,4.70
2022-12-31T12:53:35.493Z,5.90
2022-12-31T12:59:02.344Z,5.20
2022-12-31T13:05:05.269Z,5.20
2022-12-31T13:10:35.543Z,5.00
2022-12-31T13:15:52.570Z,6.00
2022-12-31T13:21:21.568Z,3.90
2022-12-31T13:26:37.533Z,5.40
2022-12-31T13:31:50.405Z,4.20
2022-12-31T13:37:08.557Z,4.70
2022-12-31T13:42:31.431Z,4.10
2022-12-31T13:47:47.879Z,5.10
2022-12-31T13:53:04.887Z,3.80
2022-12-31T13:58:24.982Z,6.80
2022-12-31T14:03:47.947Z,6.20
2022-12-31T14:08:58.691Z,3.90
2022-12-31T14:14:25.692Z,3.90
2022-12-31T14:20:03.672Z,4.90
2022-12-31T14:25:25.576Z,4.40
2022-12-31T14:30:41.916Z,4.60
2022-12-31T14:36:12.936Z,4.80
2022-12-31T14:41:45.865Z,5.20
2022-12-31T14:47:16.707Z,5.10
2022-12-31T14:52:31.086Z,3.60
2022-12-31T14:58:17.100Z,4.30
2022-12-31T15:03:41.263Z,5.30
2022-12-31T15:09:11.144Z,6.20
2022-12-31T15:14:52.454Z,18.90
2022-12-31T15:20:33.423Z,6.70
2022-12-31T15:25:51.010Z,11.20
2022-12-31T15:31:07.418Z,10.00
2022-12-31T15:36:24.544Z,6.10
2022-12-31T15:42:10.365Z,6.50
2022-12-31T15:47:29.037Z,6.80
2022-12-31T15:52:46.928Z,10.60
2022-12-31T15:58:00.507Z,6.70
2022-12-31T16:03:25.343Z,4.80
2022-12-31T16:08:38.750Z,4.70
2022-12-31T16:13:54.184Z,3.80
2022-12-31T16:19:04.457Z,3.50
2022-12-31T16:24:33.186Z,4.00
2022-12-31T16:29:55.825Z,3.20
2022-12-31T16:35:23.599Z,3.60
2022-12-31T16:40:34.156Z,4.90
2022-12-31T16:45:44.702Z,4.70
2022-12-31T16:50:57.492Z,5.50
2022-12-31T16:56:10.571Z,4.70
2022-12-31T17:01:26.576Z,4.90
2022-12-31T17:06:36.563Z,4.70
2022-12-31T17:11:54.296Z,4.20
2022-12-31T17:17:08.539Z,3.00
2022-12-31T17:22:35.802Z,4.40
2022-12-31T17:27:59.761Z,5.40
2022-12-31T17:33:34.163Z,4.90
2022-12-31T17:38:44.319Z,4.40
2022-12-31T17:43:58.354Z,6.20
2022-12-31T17:49:11.325Z,10.00
2022-12-31T17:54:22.699Z,4.00
2022-12-31T17:59:34.252Z,4.20
2022-12-31T18:04:43.927Z,6.00
2022-12-31T18:09:53.853Z,3.50
2022-12-31T18:15:03.812Z,5.90
2022-12-31T18:20:15.756Z,7.00
2022-12-31T18:25:27.094Z,10.50
2022-12-31T18:30:38.364Z,11.20
2022-12-31T18:36:08.352Z,9.60
2022-12-31T18:41:23.969Z,6.70
2022-12-31T18:46:33.650Z,9.40
2022-12-31T18:51:43.374Z,9.30
2022-12-31T18:56:57.015Z,10.00
2022-12-31T19:02:07.491Z,10.80
2022-12-31T19:07:17.191Z,10.70
2022-12-31T19:12:26.885Z,9.20
2022-12-31T19:17:36.721Z,17.10
2022-12-31T19:22:46.598Z,12.40
2022-12-31T19:27:56.644Z,9.40
2022-12-31T19:33:06.305Z,13.20
2022-12-31T19:38:23.938Z,11.00
2022-12-31T19:43:33.598Z,9.30
2022-12-31T19:48:43.746Z,14.60
2022-12-31T19:53:54.455Z,16.80
2022-12-31T19:59:09.699Z,14.10
2022-12-31T20:04:19.730Z,12.90
2022-12-31T20:09:29.603Z,9.90
2022-12-31T20:14:39.265Z,9.00
2022-12-31T20:19:49.198Z,8.20
2022-12-31T20:24:59.082Z,11.50
2022-12-31T20:30:11.429Z,8.80
2022-12-31T20:35:22.921Z,11.40
2022-12-31T20:40:33.752Z,8.50
2022-12-31T20:45:45.925Z,8.40
2022-12-31T20:51:01.196Z,10.80
2022-12-31T20:56:12.364Z,7.80
2022-12-31T21:01:23.442Z,10.00
2022-12-31T21:06:34.327Z,24.90
2022-12-31T21:12:01.665Z,13.10
2022-12-31T21:17:11.497Z,7.30
2022-12-31T21:22:21.547Z,4.50
2022-12-31T21:27:31.531Z,4.50
2022-12-31T21:32:41.118Z,4.80
2022-12-31T21:37:58.903Z,4.10
2022-12-31T21:43:10.457Z,4.40
2022-12-31T21:48:25.304Z,4.60
2022-12-31T21:53:37.191Z,5.70
2022-12-31T21:59:10.106Z,4.00
2022-12-31T22:04:59.806Z,3.70
2022-12-31T22:09:49.885Z,5.80
2022-12-31T22:15:15.913Z,5.90
2022-12-31T22:20:27.878Z,4.20
2022-12-31T22:25:40.623Z,3.50
2022-12-31T22:30:52.387Z,3.20
2022-12-31T22:36:09.565Z,4.30
2022-12-31T22:41:22.042Z,4.10
2022-12-31T22:46:33.427Z,3.80
2022-12-31T22:51:56.046Z,3.20
2022-12-31T22:57:13.312Z,3.00
2022-12-31T23:02:25.987Z,6.60
2022-12-31T23:07:35.946Z,10.00
2022-12-31T23:12:45.596Z,5.30
2022-12-31T23:18:12.800Z,3.00
2022-12-31T23:23:22.857Z,3.70
2022-12-31T23:28:32.456Z,2.20
2022-12-31T23:33:42.164Z,3.80
2022-12-31T23:38:54.962Z,3.70
2022-12-31T23:44:04.747Z,3.80
2022-12-31T23:49:14.868Z,4.60
2022-12-31T23:54:24.748Z,5.00
2022-12-31T23:59:34.535Z,2.80
